»·PEaware :: N337SB KSNA-KPSP

N337SB :: KSNA-KPSP

FLIGHT INFORMATION

Flight Status: Arrived
Operator: Privately registered:
United States
More flights under this callsign
Pilot: Dean S. (16265)
Aircraft: Unknown
(DA62)
More flights by this aircraft type
Origin: KSNA John Wayne-Orange Co
United States
Destination: KPSP Palm Springs Intl
United States
More flights between these airports :: More routes between these airports
Route: +
File this flight plan on PilotEdge
Remarks:
Altitude:
(Current/Filed)
7,500ft
Speed:
(Current/Filed)
0kts
Departed: 07-Oct-18 09:44 AM
Arrived: 07-Oct-18 10:20 AM
Distance/Time
Traveled:
69nm/0:36
Distance/Time
To Go:
Arrived

Flight Plot

Page will automatically refresh every two minutes.


Map Options




Map Legend


Flown Route
Filed Route
Departure Airport
Arrival Airport
Navaid (VOR, NDB)
Fix

Horizontal Profiles

Position Reports

Time Latitude Longitude Heading Altitude Ground
Speed
07-Oct-18 09:38 33.671921 -117.867090 206 59ft 0kts
07-Oct-18 09:39 33.671921 -117.867090 206 59ft 0kts
07-Oct-18 09:40 33.671921 -117.867090 206 59ft 0kts
07-Oct-18 09:41 33.671867 -117.867137 235 59ft 3kts
07-Oct-18 09:42 33.673650 -117.867100 343 59ft 12kts
07-Oct-18 09:43 33.677191 -117.865174 27 59ft 15kts
07-Oct-18 09:44 33.679939 -117.863668 294 59ft 2kts
07-Oct-18 09:45 33.679986 -117.863795 293 59ft 6kts
07-Oct-18 09:46 33.668017 -117.871878 207 495ft 79kts
07-Oct-18 09:47 33.653293 -117.860647 93 1592ft 93kts
07-Oct-18 09:48 33.646542 -117.828668 133 2646ft 114kts
07-Oct-18 09:49 33.633185 -117.793498 113 3628ft 121kts
07-Oct-18 09:50 33.605474 -117.779617 167 4959ft 107kts
07-Oct-18 09:51 33.576873 -117.767884 145 6261ft 103kts
07-Oct-18 09:52 33.565519 -117.742931 49 7409ft 111kts
07-Oct-18 09:53 33.601834 -117.721342 53 7404ft 172kts
07-Oct-18 09:54 33.609424 -117.663156 87 7405ft 182kts
07-Oct-18 09:55 33.611517 -117.602156 87 7406ft 184kts
07-Oct-18 09:56 33.621741 -117.542945 69 7419ft 182kts
07-Oct-18 09:57 33.635298 -117.483888 75 7412ft 184kts
07-Oct-18 09:58 33.647922 -117.424540 75 7415ft 184kts
07-Oct-18 09:59 33.660618 -117.364800 75 7413ft 184kts
07-Oct-18 10:00 33.673262 -117.305296 75 7412ft 184kts
07-Oct-18 10:01 33.685915 -117.245744 75 7417ft 184kts
07-Oct-18 10:02 33.700077 -117.187544 64 7508ft 182kts
07-Oct-18 10:03 33.725103 -117.134169 59 7506ft 184kts
07-Oct-18 10:04 33.753365 -117.082854 52 7481ft 185kts
07-Oct-18 10:05 33.786499 -117.032262 51 6987ft 195kts
07-Oct-18 10:06 33.819734 -116.981727 51 6487ft 191kts
07-Oct-18 10:07 33.852539 -116.932089 49 6022ft 187kts
07-Oct-18 10:08 33.886094 -116.884109 49 5271ft 183kts
07-Oct-18 10:09 33.909998 -116.835694 74 5086ft 154kts
07-Oct-18 10:10 33.916358 -116.780565 83 4560ft 170kts
07-Oct-18 10:11 33.919922 -116.728044 89 4280ft 145kts
07-Oct-18 10:12 33.918649 -116.680182 95 4043ft 141kts
07-Oct-18 10:13 33.913637 -116.636236 97 4213ft 122kts
07-Oct-18 10:14 33.910764 -116.593086 93 3682ft 129kts
07-Oct-18 10:15 33.906668 -116.552446 105 2827ft 117kts
07-Oct-18 10:16 33.886341 -116.525341 136 2203ft 107kts
07-Oct-18 10:17 33.866422 -116.504964 140 1793ft 84kts
07-Oct-18 10:18 33.847276 -116.488909 147 1776ft 86kts
07-Oct-18 10:19 33.826833 -116.473606 149 1514ft 88kts
07-Oct-18 10:20 33.807328 -116.470150 242 1193ft 84kts
07-Oct-18 10:21 33.817100 -116.493705 323 624ft 87kts
07-Oct-18 10:22 33.828400 -116.503632 324 480ft 20kts
07-Oct-18 10:23 33.829755 -116.503882 143 480ft 18kts
07-Oct-18 10:24 33.827113 -116.500730 124 480ft 0kts
07-Oct-18 10:25 33.827113 -116.500730 124 480ft 0kts
07-Oct-18 10:26 33.827113 -116.500730 124 480ft 0kts
07-Oct-18 10:27 33.827113 -116.500730 124 480ft 0kts
07-Oct-18 10:28 33.827113 -116.500730 124 480ft 0kts
07-Oct-18 10:29 33.827113 -116.500730 124 480ft 0kts
07-Oct-18 10:30 33.827113 -116.500730 124 480ft 0kts
07-Oct-18 10:31 33.827113 -116.500730 124 480ft 0kts
07-Oct-18 10:32 33.827113 -116.500730 124 480ft 0kts
07-Oct-18 10:33 33.827113 -116.500730 124 480ft 0kts
07-Oct-18 10:34 33.827113 -116.500730 124 480ft 0kts
07-Oct-18 10:35 33.827113 -116.500730 124 480ft 0kts
07-Oct-18 10:36 33.827113 -116.500730 124 480ft 0kts

Navigation Log

Ident Type
1. KSNA Airport
2. KPSP Airport